Terminal Aerodrome Forecast
Issued by NWS

Home | Current Version | Previous Version | Text Only | Print | Product List | Glossary On
Versions: 1 2 3 4 5 6 7 8 9 10 11 12 13 14 15 16 17 18 19 20 21 22 23 24 25 26 27 28 29 30 31 32 33 34 35 36 37 38 39 40 41 42 43 44 45 46 47 48 49 50
000
FTUS45 KBOU 011447 AAA
TAFAPA
TAF AMD
KAPA 011447Z 0115/0212 16006KT P6SM SCT100 BKN200
     FM011700 19011KT P6SM FEW080 BKN110 BKN200
     FM012000 06012KT P6SM VCTS SCT060CB BKN080
      TEMPO 0121/0124 5SM SHRA BR BKN045 OVC060
     FM020000 02013G22KT 5SM -SHRA BR SCT035 BKN050
      TEMPO 0200/0204 3SM SHRA BR BKN025 OVC035
     FM020600 34008KT P6SM VCSH BKN045 OVC060 PROB30 0206/0209 -SHRA
      OVC035
     FM021100 VRB05KT P6SM VCFG FEW045 SCT060 BKN120=

USA.gov is the U.S. government's official web portal to all federal, state and local government web resources and services.